sensor_id;sensor_type;location;lat;lon;timestamp;pressure;altitude;pressure_sealevel;temperature;humidity
74627;BME280;63132;52.268;5.192;2023-04-01T00:01:44;98935.72;;;9.47;86.02
74627;BME280;63132;52.268;5.192;2023-04-01T00:04:09;98946.78;;;9.34;85.70
74627;BME280;63132;52.268;5.192;2023-04-01T00:06:35;98948.44;;;9.27;86.34
74627;BME280;63132;52.268;5.192;2023-04-01T00:09:00;98945.91;;;9.17;86.29
74627;BME280;63132;52.268;5.192;2023-04-01T00:11:26;98947.09;;;9.23;86.48
74627;BME280;63132;52.268;5.192;2023-04-01T00:13:53;98948.59;;;9.34;86.13
74627;BME280;63132;52.268;5.192;2023-04-01T00:16:18;98953.06;;;9.25;85.89
74627;BME280;63132;52.268;5.192;2023-04-01T00:18:44;98947.47;;;9.37;85.95
74627;BME280;63132;52.268;5.192;2023-04-01T00:21:12;98951.41;;;9.24;85.83
74627;BME280;63132;52.268;5.192;2023-04-01T00:23:37;98951.56;;;9.22;86.10
74627;BME280;63132;52.268;5.192;2023-04-01T00:26:03;98952.72;;;9.28;86.19
74627;BME280;63132;52.268;5.192;2023-04-01T00:28:29;98953.41;;;9.30;85.94
74627;BME280;63132;52.268;5.192;2023-04-01T00:30:54;98952.09;;;9.34;86.19
74627;BME280;63132;52.268;5.192;2023-04-01T00:33:20;98957.53;;;9.24;85.89
74627;BME280;63132;52.268;5.192;2023-04-01T00:35:45;98958.03;;;9.28;86.05
74627;BME280;63132;52.268;5.192;2023-04-01T00:38:11;98953.41;;;9.22;86.17
74627;BME280;63132;52.268;5.192;2023-04-01T00:40:40;98955.16;;;9.13;86.45
74627;BME280;63132;52.268;5.192;2023-04-01T00:43:15;98959.00;;;9.19;86.47
74627;BME280;63132;52.268;5.192;2023-04-01T00:45:44;98960.00;;;9.18;86.46
74627;BME280;63132;52.268;5.192;2023-04-01T00:48:15;98963.97;;;9.14;86.46
74627;BME280;63132;52.268;5.192;2023-04-01T00:50:44;98957.34;;;9.18;86.45
74627;BME280;63132;52.268;5.192;2023-04-01T00:53:11;98960.78;;;9.10;86.34
74627;BME280;63132;52.268;5.192;2023-04-01T00:55:39;98968.69;;;9.02;86.61
74627;BME280;63132;52.268;5.192;2023-04-01T00:58:09;98961.94;;;9.07;86.29
74627;BME280;63132;52.268;5.192;2023-04-01T01:00:36;98965.75;;;9.05;86.53
74627;BME280;63132;52.268;5.192;2023-04-01T01:03:02;98966.09;;;9.10;86.46
74627;BME280;63132;52.268;5.192;2023-04-01T01:05:43;98966.00;;;9.20;86.29
74627;BME280;63132;52.268;5.192;2023-04-01T01:10:39;98969.03;;;8.98;85.88
74627;BME280;63132;52.268;5.192;2023-04-01T01:13:18;98963.84;;;8.88;86.51
74627;BME280;63132;52.268;5.192;2023-04-01T01:16:00;98972.66;;;8.97;86.49
74627;BME280;63132;52.268;5.192;2023-04-01T01:18:54;98967.16;;;8.91;86.72
74627;BME280;63132;52.268;5.192;2023-04-01T01:24:21;98968.41;;;9.05;86.53
74627;BME280;63132;52.268;5.192;2023-04-01T01:37:13;98976.06;;;8.81;86.55
74627;BME280;63132;52.268;5.192;2023-04-01T01:39:42;98967.25;;;8.81;86.56
74627;BME280;63132;52.268;5.192;2023-04-01T01:42:11;98973.06;;;8.76;86.50
74627;BME280;63132;52.268;5.192;2023-04-01T01:44:40;98974.66;;;8.69;86.60
74627;BME280;63132;52.268;5.192;2023-04-01T01:47:07;98986.16;;;8.78;86.88
74627;BME280;63132;52.268;5.192;2023-04-01T01:49:33;98981.69;;;8.78;86.67
74627;BME280;63132;52.268;5.192;2023-04-01T01:52:00;98979.75;;;8.88;86.48
74627;BME280;63132;52.268;5.192;2023-04-01T01:54:26;98986.03;;;8.87;86.20
74627;BME280;63132;52.268;5.192;2023-04-01T01:56:59;98988.47;;;8.81;86.45
74627;BME280;63132;52.268;5.192;2023-04-01T01:59:27;98990.28;;;8.80;86.29
74627;BME280;63132;52.268;5.192;2023-04-01T02:01:55;98987.69;;;8.88;86.32
74627;BME280;63132;52.268;5.192;2023-04-01T02:04:21;98987.69;;;8.88;86.24
74627;BME280;63132;52.268;5.192;2023-04-01T02:06:49;98991.91;;;8.73;85.98
74627;BME280;63132;52.268;5.192;2023-04-01T02:09:18;98999.19;;;8.71;86.20
74627;BME280;63132;52.268;5.192;2023-04-01T02:11:57;99001.91;;;8.79;86.29
74627;BME280;63132;52.268;5.192;2023-04-01T02:14:40;99001.69;;;8.72;86.64
74627;BME280;63132;52.268;5.192;2023-04-01T02:17:15;98998.91;;;8.82;86.17
74627;BME280;63132;52.268;5.192;2023-04-01T02:19:51;99003.59;;;8.88;86.16
74627;BME280;63132;52.268;5.192;2023-04-01T02:22:26;99001.97;;;8.87;85.92
74627;BME280;63132;52.268;5.192;2023-04-01T02:24:58;99009.59;;;8.91;86.39
74627;BME280;63132;52.268;5.192;2023-04-01T02:27:25;99005.75;;;8.85;85.88
74627;BME280;63132;52.268;5.192;2023-04-01T02:29:51;99011.13;;;8.93;86.03
74627;BME280;63132;52.268;5.192;2023-04-01T02:32:19;99013.88;;;8.83;86.03
74627;BME280;63132;52.268;5.192;2023-04-01T02:34:46;99014.16;;;8.80;86.45
74627;BME280;63132;52.268;5.192;2023-04-01T02:37:13;99025.81;;;8.87;86.52
74627;BME280;63132;52.268;5.192;2023-04-01T02:39:39;99014.06;;;8.90;85.87
74627;BME280;63132;52.268;5.192;2023-04-01T02:42:04;99016.72;;;8.90;86.33
74627;BME280;63132;52.268;5.192;2023-04-01T02:44:30;99024.75;;;8.80;86.28
74627;BME280;63132;52.268;5.192;2023-04-01T02:46:55;99028.41;;;8.79;86.67
74627;BME280;63132;52.268;5.192;2023-04-01T02:49:21;99028.09;;;8.82;86.51
74627;BME280;63132;52.268;5.192;2023-04-01T02:51:46;99026.59;;;8.80;86.58
74627;BME280;63132;52.268;5.192;2023-04-01T02:54:12;99037.44;;;8.68;86.88
74627;BME280;63132;52.268;5.192;2023-04-01T02:56:37;99043.44;;;8.70;86.73
74627;BME280;63132;52.268;5.192;2023-04-01T02:59:02;99048.22;;;8.67;86.88
74627;BME280;63132;52.268;5.192;2023-04-01T03:01:28;99047.91;;;8.70;86.77
74627;BME280;63132;52.268;5.192;2023-04-01T03:03:53;99059.63;;;8.67;86.83
74627;BME280;63132;52.268;5.192;2023-04-01T03:06:19;99055.09;;;8.59;87.52
74627;BME280;63132;52.268;5.192;2023-04-01T03:08:44;99059.09;;;8.63;87.71
74627;BME280;63132;52.268;5.192;2023-04-01T03:11:10;99058.72;;;8.76;87.49
74627;BME280;63132;52.268;5.192;2023-04-01T03:13:36;99068.78;;;8.73;87.29
74627;BME280;63132;52.268;5.192;2023-04-01T03:16:02;99065.78;;;8.68;87.41
74627;BME280;63132;52.268;5.192;2023-04-01T03:18:27;99068.63;;;8.74;87.18
74627;BME280;63132;52.268;5.192;2023-04-01T03:20:52;99068.09;;;8.71;87.49
74627;BME280;63132;52.268;5.192;2023-04-01T03:23:18;99070.84;;;8.79;87.12
74627;BME280;63132;52.268;5.192;2023-04-01T03:25:46;99078.03;;;8.87;86.92
74627;BME280;63132;52.268;5.192;2023-04-01T03:28:12;99075.22;;;8.88;86.76
74627;BME280;63132;52.268;5.192;2023-04-01T03:30:38;99085.13;;;8.86;87.09
74627;BME280;63132;52.268;5.192;2023-04-01T03:33:03;99087.34;;;8.91;86.78
74627;BME280;63132;52.268;5.192;2023-04-01T03:35:29;99094.25;;;8.84;87.12
74627;BME280;63132;52.268;5.192;2023-04-01T03:37:55;99095.13;;;8.93;87.32
74627;BME280;63132;52.268;5.192;2023-04-01T03:40:21;99095.97;;;8.75;87.40
74627;BME280;63132;52.268;5.192;2023-04-01T03:42:46;99101.44;;;8.73;87.78
74627;BME280;63132;52.268;5.192;2023-04-01T03:45:12;99101.88;;;8.87;87.68
74627;BME280;63132;52.268;5.192;2023-04-01T03:47:38;99100.69;;;8.81;88.38
74627;BME280;63132;52.268;5.192;2023-04-01T03:50:05;99096.75;;;8.85;87.97
74627;BME280;63132;52.268;5.192;2023-04-01T03:52:31;99109.69;;;8.88;88.10
74627;BME280;63132;52.268;5.192;2023-04-01T03:54:56;99120.69;;;8.75;88.86
74627;BME280;63132;52.268;5.192;2023-04-01T03:57:21;99118.72;;;8.78;89.09
74627;BME280;63132;52.268;5.192;2023-04-01T03:59:47;99125.22;;;8.83;88.94
74627;BME280;63132;52.268;5.192;2023-04-01T04:02:12;99126.34;;;8.81;88.87
74627;BME280;63132;52.268;5.192;2023-04-01T04:04:38;99132.66;;;8.80;88.95
74627;BME280;63132;52.268;5.192;2023-04-01T04:07:03;99135.00;;;8.83;88.86
74627;BME280;63132;52.268;5.192;2023-04-01T04:09:30;99143.44;;;8.78;88.93
74627;BME280;63132;52.268;5.192;2023-04-01T04:11:56;99152.28;;;8.69;89.09
74627;BME280;63132;52.268;5.192;2023-04-01T04:14:22;99146.59;;;8.63;89.05
74627;BME280;63132;52.268;5.192;2023-04-01T04:16:48;99154.53;;;8.63;89.62
74627;BME280;63132;52.268;5.192;2023-04-01T04:19:13;99155.53;;;8.62;89.56
74627;BME280;63132;52.268;5.192;2023-04-01T04:21:40;99167.78;;;8.63;89.64
74627;BME280;63132;52.268;5.192;2023-04-01T04:24:06;99166.97;;;8.63;89.63
74627;BME280;63132;52.268;5.192;2023-04-01T04:26:31;99168.31;;;8.67;89.54
74627;BME280;63132;52.268;5.192;2023-04-01T04:28:57;99170.22;;;8.75;89.36
74627;BME280;63132;52.268;5.192;2023-04-01T04:31:24;99172.19;;;8.73;89.16
74627;BME280;63132;52.268;5.192;2023-04-01T04:33:49;99182.00;;;8.72;88.94
74627;BME280;63132;52.268;5.192;2023-04-01T04:36:16;99181.16;;;8.72;89.01
74627;BME280;63132;52.268;5.192;2023-04-01T04:38:41;99187.50;;;8.79;88.98
74627;BME280;63132;52.268;5.192;2023-04-01T04:41:11;99195.84;;;8.84;88.71
74627;BME280;63132;52.268;5.192;2023-04-01T04:43:37;99191.44;;;8.75;88.99
74627;BME280;63132;52.268;5.192;2023-04-01T04:46:12;99201.75;;;8.78;88.97
74627;BME280;63132;52.268;5.192;2023-04-01T04:48:37;99209.78;;;8.86;88.75
74627;BME280;63132;52.268;5.192;2023-04-01T04:51:03;99209.03;;;8.76;88.84
74627;BME280;63132;52.268;5.192;2023-04-01T04:53:30;99214.94;;;8.88;88.86
74627;BME280;63132;52.268;5.192;2023-04-01T04:55:55;99215.38;;;8.83;88.81
74627;BME280;63132;52.268;5.192;2023-04-01T04:58:20;99227.38;;;8.87;88.34
74627;BME280;63132;52.268;5.192;2023-04-01T05:00:46;99226.97;;;8.82;88.55
74627;BME280;63132;52.268;5.192;2023-04-01T05:03:12;99229.81;;;8.99;88.28
74627;BME280;63132;52.268;5.192;2023-04-01T05:05:38;99246.91;;;8.86;88.54
74627;BME280;63132;52.268;5.192;2023-04-01T05:08:04;99235.38;;;8.96;88.52
74627;BME280;63132;52.268;5.192;2023-04-01T05:10:30;99249.56;;;8.86;88.74
74627;BME280;63132;52.268;5.192;2023-04-01T05:12:56;99251.94;;;8.90;88.99
74627;BME280;63132;52.268;5.192;2023-04-01T05:15:22;99254.97;;;8.95;88.74
74627;BME280;63132;52.268;5.192;2023-04-01T05:17:47;99252.53;;;8.83;88.76
74627;BME280;63132;52.268;5.192;2023-04-01T05:20:13;99258.56;;;8.94;88.76
74627;BME280;63132;52.268;5.192;2023-04-01T05:22:39;99260.53;;;8.92;88.56
74627;BME280;63132;52.268;5.192;2023-04-01T05:25:05;99266.63;;;9.02;88.49
74627;BME280;63132;52.268;5.192;2023-04-01T05:27:30;99266.16;;;8.88;88.28
74627;BME280;63132;52.268;5.192;2023-04-01T05:29:56;99272.16;;;8.91;88.55
74627;BME280;63132;52.268;5.192;2023-04-01T05:32:22;99275.91;;;8.88;88.49
74627;BME280;63132;52.268;5.192;2023-04-01T05:34:50;99275.09;;;8.87;88.65
74627;BME280;63132;52.268;5.192;2023-04-01T05:37:16;99278.56;;;8.88;88.42
74627;BME280;63132;52.268;5.192;2023-04-01T05:39:41;99291.03;;;8.87;88.50
74627;BME280;63132;52.268;5.192;2023-04-01T05:42:07;99286.25;;;8.91;88.48
74627;BME280;63132;52.268;5.192;2023-04-01T05:44:33;99292.44;;;8.82;88.86
74627;BME280;63132;52.268;5.192;2023-04-01T05:46:58;99294.25;;;8.81;88.85
74627;BME280;63132;52.268;5.192;2023-04-01T05:49:24;99297.75;;;8.82;88.71
74627;BME280;63132;52.268;5.192;2023-04-01T05:51:50;99297.88;;;8.80;88.96
74627;BME280;63132;52.268;5.192;2023-04-01T05:54:16;99312.81;;;8.81;88.95
74627;BME280;63132;52.268;5.192;2023-04-01T05:56:42;99313.88;;;8.88;88.71
74627;BME280;63132;52.268;5.192;2023-04-01T05:59:10;99319.19;;;8.88;88.60
74627;BME280;63132;52.268;5.192;2023-04-01T06:01:35;99319.72;;;8.92;88.63
74627;BME280;63132;52.268;5.192;2023-04-01T06:04:01;99314.97;;;8.96;88.42
74627;BME280;63132;52.268;5.192;2023-04-01T06:06:28;99322.91;;;8.96;88.68
74627;BME280;63132;52.268;5.192;2023-04-01T06:08:58;99331.19;;;8.93;88.60
74627;BME280;63132;52.268;5.192;2023-04-01T06:35:41;99388.72;;;8.82;87.73
74627;BME280;63132;52.268;5.192;2023-04-01T06:41:28;99381.22;;;9.06;87.80
74627;BME280;63132;52.268;5.192;2023-04-01T06:57:55;99417.41;;;9.07;87.94
74627;BME280;63132;52.268;5.192;2023-04-01T07:00:30;99421.56;;;9.09;88.04
74627;BME280;63132;52.268;5.192;2023-04-01T07:05:28;99421.50;;;9.19;87.88
74627;BME280;63132;52.268;5.192;2023-04-01T07:08:03;99425.44;;;9.15;87.79
74627;BME280;63132;52.268;5.192;2023-04-01T07:10:34;99431.81;;;9.22;87.79
74627;BME280;63132;52.268;5.192;2023-04-01T07:13:15;99433.75;;;9.30;87.28
74627;BME280;63132;52.268;5.192;2023-04-01T07:15:50;99437.25;;;9.31;87.25
74627;BME280;63132;52.268;5.192;2023-04-01T07:21:41;99445.78;;;9.24;87.49
74627;BME280;63132;52.268;5.192;2023-04-01T07:24:15;99454.69;;;9.33;87.43
74627;BME280;63132;52.268;5.192;2023-04-01T07:26:43;99446.97;;;9.40;87.14
74627;BME280;63132;52.268;5.192;2023-04-01T07:29:13;99465.44;;;9.32;87.17
74627;BME280;63132;52.268;5.192;2023-04-01T07:37:18;99471.31;;;9.35;87.42
74627;BME280;63132;52.268;5.192;2023-04-01T07:40:05;99474.78;;;9.36;87.31
74627;BME280;63132;52.268;5.192;2023-04-01T07:42:45;99472.38;;;9.43;86.95
74627;BME280;63132;52.268;5.192;2023-04-01T07:48:23;99479.88;;;9.47;87.32
74627;BME280;63132;52.268;5.192;2023-04-01T07:53:40;99496.28;;;9.43;87.14
74627;BME280;63132;52.268;5.192;2023-04-01T07:56:25;99490.06;;;9.52;87.33
74627;BME280;63132;52.268;5.192;2023-04-01T07:59:06;99512.78;;;9.37;87.53
74627;BME280;63132;52.268;5.192;2023-04-01T08:04:17;99511.69;;;9.57;87.09
74627;BME280;63132;52.268;5.192;2023-04-01T08:15:10;99529.09;;;9.70;86.70
74627;BME280;63132;52.268;5.192;2023-04-01T08:23:15;99545.63;;;9.64;87.05
74627;BME280;63132;52.268;5.192;2023-04-01T08:25:50;99547.97;;;9.67;87.02
74627;BME280;63132;52.268;5.192;2023-04-01T08:28:30;99548.38;;;9.72;86.80
74627;BME280;63132;52.268;5.192;2023-04-01T08:31:09;99546.50;;;9.82;86.42
74627;BME280;63132;52.268;5.192;2023-04-01T08:33:39;99552.72;;;9.73;86.19
74627;BME280;63132;52.268;5.192;2023-04-01T08:52:49;99584.06;;;9.88;87.08
74627;BME280;63132;52.268;5.192;2023-04-01T08:55:46;99583.31;;;9.77;86.82
74627;BME280;63132;52.268;5.192;2023-04-01T09:07:04;64071.53;;;-148.47;100.00
74627;BME280;63132;52.268;5.192;2023-04-01T09:21:43;99617.84;;;9.77;86.69
74627;BME280;63132;52.268;5.192;2023-04-01T09:40:43;99649.41;;;10.09;86.21
74627;BME280;63132;52.268;5.192;2023-04-01T09:43:23;99653.25;;;10.24;85.30
74627;BME280;63132;52.268;5.192;2023-04-01T09:46:14;99659.09;;;10.28;85.46
74627;BME280;63132;52.268;5.192;2023-04-01T09:59:59;99669.28;;;10.79;83.56
74627;BME280;63132;52.268;5.192;2023-04-01T10:11:58;99683.28;;;10.63;82.79
74627;BME280;63132;52.268;5.192;2023-04-01T10:14:44;99697.69;;;10.60;82.60
74627;BME280;63132;52.268;5.192;2023-04-01T10:20:23;99692.31;;;10.70;83.63
74627;BME280;63132;52.268;5.192;2023-04-01T10:23:15;99687.03;;;11.15;82.33
74627;BME280;63132;52.268;5.192;2023-04-01T10:31:43;99694.13;;;11.06;82.35
74627;BME280;63132;52.268;5.192;2023-04-01T10:40:57;99708.56;;;10.39;84.03
74627;BME280;63132;52.268;5.192;2023-04-01T10:49:38;99715.66;;;10.48;84.42
74627;BME280;63132;52.268;5.192;2023-04-01T10:55:46;99725.13;;;10.79;82.54
74627;BME280;63132;52.268;5.192;2023-04-01T11:01:12;99723.09;;;11.28;82.00
74627;BME280;63132;52.268;5.192;2023-04-01T11:10:26;99735.78;;;11.34;79.37
74627;BME280;63132;52.268;5.192;2023-04-01T11:21:58;99745.91;;;11.12;82.13
74627;BME280;63132;52.268;5.192;2023-04-01T11:45:57;99773.56;;;10.83;82.93
74627;BME280;63132;52.268;5.192;2023-04-01T11:51:29;99796.44;;;10.75;83.52
74627;BME280;63132;52.268;5.192;2023-04-01T11:54:03;99797.03;;;10.97;82.44
74627;BME280;63132;52.268;5.192;2023-04-01T12:02:03;99801.06;;;10.73;82.68
74627;BME280;63132;52.268;5.192;2023-04-01T12:11:00;99819.78;;;10.05;85.22
74627;BME280;63132;52.268;5.192;2023-04-01T12:18:54;99821.19;;;10.10;86.29
74627;BME280;63132;52.268;5.192;2023-04-01T12:27:02;99845.94;;;10.58;84.79
74627;BME280;63132;52.268;5.192;2023-04-01T12:37:28;99841.53;;;11.42;81.63
74627;BME280;63132;52.268;5.192;2023-04-01T12:45:29;99855.31;;;11.37;82.22
74627;BME280;63132;52.268;5.192;2023-04-01T12:48:06;99855.56;;;10.97;83.23
74627;BME280;63132;52.268;5.192;2023-04-01T12:55:59;99872.00;;;10.83;84.16
74627;BME280;63132;52.268;5.192;2023-04-01T13:16:19;99902.84;;;10.07;86.49
74627;BME280;63132;52.268;5.192;2023-04-01T13:19:13;99911.81;;;9.87;87.00
74627;BME280;63132;52.268;5.192;2023-04-01T13:25:06;99920.50;;;9.89;88.19
74627;BME280;63132;52.268;5.192;2023-04-01T13:27:20;99921.19;;;9.81;88.59
74627;BME280;63132;52.268;5.192;2023-04-01T13:40:49;99938.91;;;9.41;90.90
74627;BME280;63132;52.268;5.192;2023-04-01T13:43:43;99942.13;;;9.64;90.70
74627;BME280;63132;52.268;5.192;2023-04-01T13:54:54;99961.44;;;9.56;89.34
74627;BME280;63132;52.268;5.192;2023-04-01T14:02:30;99964.94;;;9.77;88.89
74627;BME280;63132;52.268;5.192;2023-04-01T14:05:24;99978.78;;;9.80;88.70
74627;BME280;63132;52.268;5.192;2023-04-01T14:10:39;99979.63;;;9.81;87.67
74627;BME280;63132;52.268;5.192;2023-04-01T14:13:27;99989.81;;;9.76;87.55
74627;BME280;63132;52.268;5.192;2023-04-01T14:30:30;100012.59;;;9.78;87.31
74627;BME280;63132;52.268;5.192;2023-04-01T14:32:48;100016.41;;;9.95;87.05
74627;BME280;63132;52.268;5.192;2023-04-01T14:40:58;100023.66;;;9.83;86.17
74627;BME280;63132;52.268;5.192;2023-04-01T14:43:38;100034.16;;;9.85;87.15
74627;BME280;63132;52.268;5.192;2023-04-01T14:46:39;100041.69;;;9.80;86.04
74627;BME280;63132;52.268;5.192;2023-04-01T14:49:50;100045.59;;;9.66;86.00
74627;BME280;63132;52.268;5.192;2023-04-01T14:52:27;100047.63;;;9.52;86.96
74627;BME280;63132;52.268;5.192;2023-04-01T14:54:54;100054.91;;;9.50;87.04
74627;BME280;63132;52.268;5.192;2023-04-01T14:57:31;100059.22;;;9.51;86.85
74627;BME280;63132;52.268;5.192;2023-04-01T15:00:13;100061.16;;;9.39;87.52
74627;BME280;63132;52.268;5.192;2023-04-01T15:02:55;100068.00;;;9.42;87.85
74627;BME280;63132;52.268;5.192;2023-04-01T15:08:03;100077.47;;;9.34;87.34
74627;BME280;63132;52.268;5.192;2023-04-01T15:16:27;100092.81;;;9.31;87.63
74627;BME280;63132;52.268;5.192;2023-04-01T15:24:47;100108.75;;;9.31;87.59
74627;BME280;63132;52.268;5.192;2023-04-01T15:27:19;100118.78;;;9.27;87.54
74627;BME280;63132;52.268;5.192;2023-04-01T15:29:51;100132.31;;;9.24;87.68
74627;BME280;63132;52.268;5.192;2023-04-01T15:46:23;100158.72;;;9.04;87.71
74627;BME280;63132;52.268;5.192;2023-04-01T15:51:56;100165.47;;;9.08;87.96
74627;BME280;63132;52.268;5.192;2023-04-01T16:03:20;100193.44;;;9.13;87.37
74627;BME280;63132;52.268;5.192;2023-04-01T16:11:53;100211.53;;;9.07;87.60
74627;BME280;63132;52.268;5.192;2023-04-01T16:14:26;100214.44;;;9.04;87.99
74627;BME280;63132;52.268;5.192;2023-04-01T16:17:00;100221.94;;;8.99;87.63
74627;BME280;63132;52.268;5.192;2023-04-01T16:22:19;100226.22;;;8.79;87.87
74627;BME280;63132;52.268;5.192;2023-04-01T16:27:40;100244.88;;;8.88;87.88
74627;BME280;63132;52.268;5.192;2023-04-01T16:30:23;100241.53;;;8.75;87.97
74627;BME280;63132;52.268;5.192;2023-04-01T16:35:43;100256.97;;;8.81;88.45
74627;BME280;63132;52.268;5.192;2023-04-01T16:38:32;100247.69;;;8.75;88.39
74627;BME280;63132;52.268;5.192;2023-04-01T16:41:20;100260.97;;;8.75;88.46
74627;BME280;63132;52.268;5.192;2023-04-01T16:43:52;100265.81;;;8.70;88.35
74627;BME280;63132;52.268;5.192;2023-04-01T16:46:37;100272.53;;;8.74;88.94
74627;BME280;63132;52.268;5.192;2023-04-01T16:56:56;100304.00;;;8.45;87.37
74627;BME280;63132;52.268;5.192;2023-04-01T17:02:10;100319.66;;;8.36;86.89
74627;BME280;63132;52.268;5.192;2023-04-01T17:04:45;100326.28;;;8.31;86.64
74627;BME280;63132;52.268;5.192;2023-04-01T17:20:49;100360.38;;;8.24;88.21
74627;BME280;63132;52.268;5.192;2023-04-01T17:23:21;100367.34;;;8.25;88.35
74627;BME280;63132;52.268;5.192;2023-04-01T17:28:31;100375.19;;;8.15;88.15
74627;BME280;63132;52.268;5.192;2023-04-01T17:31:18;100380.13;;;8.20;88.45
74627;BME280;63132;52.268;5.192;2023-04-01T17:41:57;100409.00;;;8.00;87.82
74627;BME280;63132;52.268;5.192;2023-04-01T17:44:47;100416.56;;;8.04;87.73
74627;BME280;63132;52.268;5.192;2023-04-01T17:47:41;100417.75;;;8.00;87.59
74627;BME280;63132;52.268;5.192;2023-04-01T17:50:28;100428.13;;;8.03;87.23
74627;BME280;63132;52.268;5.192;2023-04-01T17:56:08;100435.19;;;7.91;87.32
74627;BME280;63132;52.268;5.192;2023-04-01T18:06:34;100464.16;;;7.81;87.29
74627;BME280;63132;52.268;5.192;2023-04-01T18:09:33;100478.13;;;7.84;87.30
74627;BME280;63132;52.268;5.192;2023-04-01T18:17:42;100495.44;;;7.76;86.64
74627;BME280;63132;52.268;5.192;2023-04-01T18:20:31;100499.69;;;7.66;86.40
74627;BME280;63132;52.268;5.192;2023-04-01T18:23:03;100511.88;;;7.68;86.52
74627;BME280;63132;52.268;5.192;2023-04-01T18:25:38;100509.22;;;7.68;86.83
74627;BME280;63132;52.268;5.192;2023-04-01T18:28:20;100524.16;;;7.69;87.03
74627;BME280;63132;52.268;5.192;2023-04-01T18:31:09;100534.59;;;7.60;87.04
74627;BME280;63132;52.268;5.192;2023-04-01T18:33:44;100536.50;;;7.57;87.45
74627;BME280;63132;52.268;5.192;2023-04-01T18:36:47;100542.28;;;7.63;87.69
74627;BME280;63132;52.268;5.192;2023-04-01T18:39:35;100558.06;;;7.64;87.77
74627;BME280;63132;52.268;5.192;2023-04-01T18:42:38;100565.38;;;7.61;87.88
74627;BME280;63132;52.268;5.192;2023-04-01T18:48:46;100572.38;;;7.49;87.99
74627;BME280;63132;52.268;5.192;2023-04-01T18:50:54;100589.47;;;7.44;87.68
74627;BME280;63132;52.268;5.192;2023-04-01T18:53:43;100580.56;;;7.32;87.41
74627;BME280;63132;52.268;5.192;2023-04-01T18:56:29;100599.31;;;7.29;87.37
74627;BME280;63132;52.268;5.192;2023-04-01T18:59:26;100606.06;;;7.33;87.95
74627;BME280;63132;52.268;5.192;2023-04-01T19:16:05;100636.16;;;7.19;86.91
74627;BME280;63132;52.268;5.192;2023-04-01T19:19:21;100648.81;;;7.14;86.96
74627;BME280;63132;52.268;5.192;2023-04-01T19:26:40;100669.78;;;7.04;86.13
74627;BME280;63132;52.268;5.192;2023-04-01T19:29:30;100680.22;;;6.93;86.13
74627;BME280;63132;52.268;5.192;2023-04-01T19:37:51;100699.78;;;6.90;85.69
74627;BME280;63132;52.268;5.192;2023-04-01T19:40:49;100701.56;;;6.90;85.69
74627;BME280;63132;52.268;5.192;2023-04-01T19:43:30;100702.97;;;6.95;86.02
74627;BME280;63132;52.268;5.192;2023-04-01T19:46:17;100706.97;;;6.88;85.99
74627;BME280;63132;52.268;5.192;2023-04-01T19:52:04;100722.19;;;6.84;86.02
74627;BME280;63132;52.268;5.192;2023-04-01T20:08:13;100758.03;;;6.75;85.41
74627;BME280;63132;52.268;5.192;2023-04-01T20:16:08;100783.88;;;6.70;86.00
74627;BME280;63132;52.268;5.192;2023-04-01T20:18:45;100785.81;;;6.68;85.46
74627;BME280;63132;52.268;5.192;2023-04-01T20:21:45;100797.53;;;6.64;86.00
74627;BME280;63132;52.268;5.192;2023-04-01T20:26:43;100806.59;;;6.60;85.34
74627;BME280;63132;52.268;5.192;2023-04-01T20:32:06;100818.66;;;6.49;84.91
74627;BME280;63132;52.268;5.192;2023-04-01T20:37:30;100830.47;;;6.44;84.60
74627;BME280;63132;52.268;5.192;2023-04-01T20:42:54;100846.44;;;6.42;84.83
74627;BME280;63132;52.268;5.192;2023-04-01T20:53:43;100876.63;;;6.23;83.62
74627;BME280;63132;52.268;5.192;2023-04-01T21:12:34;100916.66;;;6.01;83.86
74627;BME280;63132;52.268;5.192;2023-04-01T21:23:11;100923.72;;;6.00;83.72
74627;BME280;63132;52.268;5.192;2023-04-01T21:31:45;100951.78;;;5.87;84.08
74627;BME280;63132;52.268;5.192;2023-04-01T21:34:44;100955.19;;;5.89;84.32
74627;BME280;63132;52.268;5.192;2023-04-01T21:40:13;100965.75;;;5.89;84.80
74627;BME280;63132;52.268;5.192;2023-04-01T21:45:28;100974.09;;;5.81;84.16
74627;BME280;63132;52.268;5.192;2023-04-01T21:51:29;100982.28;;;5.76;84.58
74627;BME280;63132;52.268;5.192;2023-04-01T21:59:47;101006.38;;;5.70;83.86
74627;BME280;63132;52.268;5.192;2023-04-01T22:04:58;101013.34;;;5.71;84.65
74627;BME280;63132;52.268;5.192;2023-04-01T22:07:34;101013.53;;;5.68;84.60
74627;BME280;63132;52.268;5.192;2023-04-01T22:10:30;101013.53;;;5.68;84.60
74627;BME280;63132;52.268;5.192;2023-04-01T22:13:04;101020.78;;;5.64;85.02
74627;BME280;63132;52.268;5.192;2023-04-01T22:18:31;101024.28;;;5.65;84.97
74627;BME280;63132;52.268;5.192;2023-04-01T22:21:07;101036.53;;;5.66;84.55
74627;BME280;63132;52.268;5.192;2023-04-01T22:32:11;101057.16;;;5.59;84.54
74627;BME280;63132;52.268;5.192;2023-04-01T22:40:24;101067.34;;;5.49;84.35
74627;BME280;63132;52.268;5.192;2023-04-01T22:42:57;101071.53;;;5.53;84.03
74627;BME280;63132;52.268;5.192;2023-04-01T22:50:36;101082.59;;;5.60;83.87
74627;BME280;63132;52.268;5.192;2023-04-01T22:55:46;101094.84;;;5.45;82.97
74627;BME280;63132;52.268;5.192;2023-04-01T22:58:24;101099.41;;;5.41;83.50
74627;BME280;63132;52.268;5.192;2023-04-01T23:01:00;101108.19;;;5.42;83.19
74627;BME280;63132;52.268;5.192;2023-04-01T23:03:34;101112.69;;;5.40;83.35
74627;BME280;63132;52.268;5.192;2023-04-01T23:06:03;101115.00;;;5.46;83.07
74627;BME280;63132;52.268;5.192;2023-04-01T23:11:09;101126.09;;;5.53;82.81
74627;BME280;63132;52.268;5.192;2023-04-01T23:13:42;101126.66;;;5.42;82.82
74627;BME280;63132;52.268;5.192;2023-04-01T23:16:09;101132.78;;;5.42;82.70
74627;BME280;63132;52.268;5.192;2023-04-01T23:18:57;101136.44;;;5.40;83.52
74627;BME280;63132;52.268;5.192;2023-04-01T23:21:35;101145.56;;;5.50;83.72
74627;BME280;63132;52.268;5.192;2023-04-01T23:27:21;101150.25;;;5.45;83.56
74627;BME280;63132;52.268;5.192;2023-04-01T23:29:49;101158.47;;;5.39;83.21
74627;BME280;63132;52.268;5.192;2023-04-01T23:32:19;101165.88;;;5.32;83.24
74627;BME280;63132;52.268;5.192;2023-04-01T23:34:54;101157.69;;;5.37;83.21